createdAt,value
2022-09-10T00:02:03.382Z,14.80
2022-09-10T00:04:50.431Z,14.80
2022-09-10T00:07:37.707Z,14.90
2022-09-10T00:10:26.336Z,14.80
2022-09-10T00:13:14.969Z,14.70
2022-09-10T00:16:04.560Z,14.50
2022-09-10T00:18:53.151Z,14.60
2022-09-10T00:21:40.347Z,14.60
2022-09-10T00:24:27.914Z,14.60
2022-09-10T00:27:15.410Z,14.60
2022-09-10T00:30:03.641Z,14.60
2022-09-10T00:32:52.693Z,14.70
2022-09-10T00:35:41.978Z,14.50
2022-09-10T00:38:29.979Z,14.50
2022-09-10T00:41:19.309Z,14.40
2022-09-10T00:44:08.352Z,14.20
2022-09-10T00:46:56.627Z,14.20
2022-09-10T00:49:47.905Z,14.10
2022-09-10T00:52:39.978Z,14.10
2022-09-10T00:55:27.449Z,14.10
2022-09-10T00:58:16.275Z,14.20
2022-09-10T01:01:04.164Z,14.10
2022-09-10T01:03:54.017Z,14.10
2022-09-10T01:06:42.687Z,14.00
2022-09-10T01:09:31.654Z,14.00
2022-09-10T01:12:35.852Z,14.10
2022-09-10T01:15:31.936Z,14.10
2022-09-10T01:18:32.076Z,14.00
2022-09-10T01:21:24.725Z,13.90
2022-09-10T01:24:50.999Z,13.80
2022-09-10T01:27:45.157Z,13.90
2022-09-10T01:30:37.906Z,14.00
2022-09-10T01:33:34.054Z,14.10
2022-09-10T01:36:26.510Z,13.80
2022-09-10T01:39:14.002Z,13.90
2022-09-10T01:42:01.698Z,14.00
2022-09-10T01:44:57.155Z,14.00
2022-09-10T01:48:13.909Z,14.10
2022-09-10T01:51:10.811Z,14.10
2022-09-10T01:54:11.121Z,14.10
2022-09-10T01:57:07.678Z,14.10
2022-09-10T02:00:04.418Z,14.00
2022-09-10T02:03:05.423Z,14.10
2022-09-10T02:05:55.974Z,14.10
2022-09-10T02:08:46.655Z,14.00
2022-09-10T02:11:45.231Z,14.00
2022-09-10T02:14:32.685Z,14.00
2022-09-10T02:17:41.952Z,13.90
2022-09-10T02:20:30.353Z,13.90
2022-09-10T02:23:21.230Z,13.80
2022-09-10T02:26:09.423Z,13.80
2022-09-10T02:28:56.561Z,13.80
2022-09-10T02:31:44.801Z,13.80
2022-09-10T02:34:36.033Z,13.80
2022-09-10T02:37:24.215Z,13.80
2022-09-10T02:40:12.394Z,13.80
2022-09-10T02:42:59.955Z,13.60
2022-09-10T02:45:48.955Z,13.30
2022-09-10T02:48:36.221Z,13.20
2022-09-10T02:51:25.886Z,13.30
2022-09-10T02:54:13.343Z,13.40
2022-09-10T02:57:00.944Z,13.40
2022-09-10T02:59:47.927Z,13.30
2022-09-10T03:02:36.733Z,13.30
2022-09-10T03:05:24.202Z,13.30
2022-09-10T03:08:12.734Z,13.20
2022-09-10T03:11:07.115Z,13.10
2022-09-10T03:13:54.646Z,13.20
2022-09-10T03:16:43.274Z,13.30
2022-09-10T03:19:31.291Z,13.40
2022-09-10T03:22:19.667Z,13.30
2022-09-10T03:25:09.020Z,13.20
2022-09-10T03:27:56.366Z,13.20
2022-09-10T03:30:45.122Z,13.10
2022-09-10T03:33:32.295Z,13.10
2022-09-10T03:36:20.857Z,13.00
2022-09-10T03:39:09.010Z,13.10
2022-09-10T03:41:58.450Z,13.10
2022-09-10T03:44:48.119Z,13.00
2022-09-10T03:47:37.538Z,13.10
2022-09-10T03:50:25.018Z,13.10
2022-09-10T03:53:13.333Z,13.20
2022-09-10T03:56:00.297Z,13.20
2022-09-10T03:58:49.326Z,13.20
2022-09-10T04:01:37.290Z,13.20
2022-09-10T04:04:26.429Z,13.30
2022-09-10T04:07:13.559Z,13.20
2022-09-10T04:10:00.757Z,13.30
2022-09-10T04:12:48.806Z,13.30
2022-09-10T04:15:38.067Z,13.30
2022-09-10T04:18:27.340Z,13.30
2022-09-10T04:21:14.347Z,13.30
2022-09-10T04:24:01.983Z,13.30
2022-09-10T04:26:49.493Z,13.30
2022-09-10T04:29:38.855Z,13.40
2022-09-10T04:32:27.825Z,13.30
2022-09-10T04:35:15.426Z,13.30
2022-09-10T04:38:02.994Z,13.30
2022-09-10T04:40:50.163Z,13.30
2022-09-10T04:43:38.351Z,13.40
2022-09-10T04:46:26.339Z,13.40
2022-09-10T04:49:17.037Z,13.40
2022-09-10T04:52:04.999Z,13.40
2022-09-10T04:54:52.335Z,13.30
2022-09-10T04:57:39.655Z,13.30
2022-09-10T05:00:27.540Z,13.30
2022-09-10T05:03:15.482Z,13.30
2022-09-10T05:06:06.159Z,13.30
2022-09-10T05:08:55.611Z,13.30
2022-09-10T05:11:43.255Z,13.30
2022-09-10T05:14:31.193Z,13.30
2022-09-10T05:17:18.256Z,13.30
2022-09-10T05:20:07.633Z,13.30
2022-09-10T05:23:00.765Z,13.30
2022-09-10T05:25:49.600Z,13.40
2022-09-10T05:28:38.194Z,13.40
2022-09-10T05:31:27.830Z,13.50
2022-09-10T05:34:16.437Z,13.60
2022-09-10T05:37:03.521Z,13.60
2022-09-10T05:39:52.173Z,13.60
2022-09-10T05:42:39.275Z,13.70
2022-09-10T05:45:26.751Z,13.70
2022-09-10T05:48:14.071Z,13.70
2022-09-10T05:51:03.043Z,13.80
2022-09-10T05:53:50.644Z,14.00
2022-09-10T05:56:40.066Z,14.10
2022-09-10T05:59:27.247Z,14.20
2022-09-10T06:02:21.755Z,14.30
2022-09-10T06:05:11.024Z,14.50
2022-09-10T06:07:58.310Z,14.70
2022-09-10T06:10:56.721Z,15.00
2022-09-10T06:13:47.161Z,15.10
2022-09-10T06:16:34.436Z,15.40
2022-09-10T06:19:22.874Z,15.50
2022-09-10T06:22:11.357Z,15.60
2022-09-10T06:25:00.439Z,15.90
2022-09-10T06:27:48.526Z,16.10
2022-09-10T06:30:39.247Z,16.30
2022-09-10T06:33:27.746Z,16.40
2022-09-10T06:36:15.834Z,16.40
2022-09-10T06:39:03.473Z,16.60
2022-09-10T06:41:58.069Z,16.60
2022-09-10T06:45:03.917Z,16.90
2022-09-10T06:51:17.418Z,17.20
2022-09-10T06:54:05.766Z,17.30
2022-09-10T06:56:53.196Z,17.30
2022-09-10T06:59:41.268Z,17.90
2022-09-10T07:02:28.457Z,17.90
2022-09-10T07:05:17.282Z,18.00
2022-09-10T07:08:06.450Z,18.30
2022-09-10T07:10:54.037Z,18.40
2022-09-10T07:13:41.890Z,18.60
2022-09-10T07:16:29.926Z,18.70
2022-09-10T07:19:17.706Z,18.80
2022-09-10T07:22:07.641Z,19.00
2022-09-10T07:24:56.233Z,19.00
2022-09-10T07:28:06.763Z,19.10
2022-09-10T07:30:56.912Z,19.40
2022-09-10T07:33:46.992Z,19.80
2022-09-10T07:36:34.065Z,20.30
2022-09-10T07:39:25.850Z,20.60
2022-09-10T07:42:14.359Z,20.70
2022-09-10T07:45:01.720Z,20.70
2022-09-10T07:47:49.909Z,21.00
2022-09-10T07:50:37.084Z,21.10
2022-09-10T07:53:24.434Z,21.00
2022-09-10T07:56:15.250Z,21.40
2022-09-10T07:59:02.645Z,21.30
2022-09-10T08:01:55.685Z,21.70
2022-09-10T08:04:42.917Z,21.40
2022-09-10T08:07:31.984Z,21.80
2022-09-10T08:10:19.528Z,21.30
2022-09-10T08:13:10.003Z,21.00
2022-09-10T08:15:57.732Z,21.10
2022-09-10T08:18:45.546Z,21.40
2022-09-10T08:21:33.257Z,21.90
2022-09-10T08:24:21.481Z,21.80
2022-09-10T08:27:11.519Z,21.70
2022-09-10T08:33:18.179Z,22.10
2022-09-10T08:36:06.945Z,22.00
2022-09-10T08:38:59.826Z,22.40
2022-09-10T08:41:55.753Z,22.20
2022-09-10T08:44:49.985Z,22.30
2022-09-10T08:47:49.222Z,22.60
2022-09-10T08:50:43.999Z,22.50
2022-09-10T08:53:47.756Z,22.60
2022-09-10T08:56:35.988Z,22.40
2022-09-10T08:59:29.804Z,22.30
2022-09-10T09:02:44.801Z,22.40
2022-09-10T09:05:29.762Z,22.50
2022-09-10T09:08:25.265Z,22.10
2022-09-10T09:11:23.118Z,22.40
2022-09-10T09:14:27.979Z,22.60
2022-09-10T09:17:47.707Z,22.80
2022-09-10T09:20:44.657Z,22.50
2022-09-10T09:23:57.060Z,23.00
2022-09-10T09:26:54.630Z,22.90
2022-09-10T09:29:47.137Z,23.50
2022-09-10T09:32:40.844Z,23.70
2022-09-10T09:35:34.619Z,23.60
2022-09-10T09:38:27.461Z,23.40
2022-09-10T09:41:25.803Z,24.00
2022-09-10T09:44:22.867Z,23.80
2022-09-10T09:47:10.973Z,22.80
2022-09-10T09:50:00.456Z,23.20
2022-09-10T09:52:48.561Z,23.50
2022-09-10T09:55:40.269Z,23.80
2022-09-10T09:58:40.119Z,23.60
2022-09-10T10:01:28.906Z,23.80
2022-09-10T10:04:23.050Z,23.40
2022-09-10T10:07:11.822Z,23.40
2022-09-10T10:10:00.998Z,23.10
2022-09-10T10:12:52.279Z,23.30
2022-09-10T10:15:42.399Z,23.50
2022-09-10T10:18:32.692Z,23.80
2022-09-10T10:21:22.259Z,23.30
2022-09-10T10:24:31.616Z,23.40
2022-09-10T10:27:22.009Z,23.20
2022-09-10T10:30:23.554Z,23.10
2022-09-10T10:33:19.050Z,22.70
2022-09-10T10:36:15.693Z,23.00
2022-09-10T10:39:10.400Z,22.60
2022-09-10T10:42:06.776Z,22.80
2022-09-10T10:45:16.446Z,23.10
2022-09-10T10:48:10.376Z,23.50
2022-09-10T10:51:09.431Z,23.00
2022-09-10T10:54:07.394Z,23.70
2022-09-10T10:57:03.089Z,23.80
2022-09-10T10:59:57.202Z,23.70
2022-09-10T11:02:50.381Z,23.70
2022-09-10T11:05:40.248Z,23.80
2022-09-10T11:08:35.964Z,23.50
2022-09-10T11:11:31.184Z,23.60
2022-09-10T11:14:24.340Z,23.80
2022-09-10T11:17:16.640Z,24.00
2022-09-10T11:20:29.951Z,24.00
2022-09-10T11:23:30.274Z,23.60
2022-09-10T11:26:23.366Z,24.00
2022-09-10T11:29:25.273Z,23.70
2022-09-10T11:32:20.390Z,23.90
2022-09-10T11:35:14.905Z,23.90
2022-09-10T11:38:07.608Z,23.90
2022-09-10T11:41:10.163Z,24.00
2022-09-10T11:44:07.750Z,24.20
2022-09-10T11:47:04.803Z,23.90
2022-09-10T11:49:59.779Z,23.60
2022-09-10T11:52:47.094Z,22.90
2022-09-10T11:55:43.625Z,22.30
2022-09-10T11:58:42.211Z,22.70
2022-09-10T12:01:49.098Z,22.30
2022-09-10T12:04:51.071Z,22.30
2022-09-10T12:07:49.018Z,22.20
2022-09-10T12:10:42.217Z,22.30
2022-09-10T12:13:33.159Z,22.40
2022-09-10T12:16:29.394Z,22.50
2022-09-10T12:19:26.194Z,22.40
2022-09-10T12:22:21.001Z,22.50
2022-09-10T12:25:23.613Z,22.60
2022-09-10T12:28:52.705Z,22.40
2022-09-10T12:32:13.555Z,22.30
2022-09-10T12:35:47.063Z,22.30
2022-09-10T12:39:16.194Z,22.30
2022-09-10T12:42:31.722Z,22.40
2022-09-10T12:46:04.988Z,22.60
2022-09-10T12:49:05.198Z,22.40
2022-09-10T12:51:59.681Z,22.30
2022-09-10T12:54:55.660Z,22.10
2022-09-10T12:57:50.709Z,22.10
2022-09-10T13:00:47.076Z,22.20
2022-09-10T13:03:35.779Z,22.20
2022-09-10T13:06:36.139Z,22.30
2022-09-10T13:09:27.571Z,22.30
2022-09-10T13:12:20.122Z,22.30
2022-09-10T13:15:16.994Z,22.40
2022-09-10T13:18:25.403Z,22.30
2022-09-10T13:21:50.947Z,22.30
2022-09-10T13:25:00.993Z,22.30
2022-09-10T13:27:48.591Z,22.40
2022-09-10T13:30:36.399Z,22.40
2022-09-10T13:33:27.953Z,22.40
2022-09-10T13:36:29.370Z,22.20
2022-09-10T13:39:43.175Z,22.20
2022-09-10T13:42:56.318Z,22.20
2022-09-10T13:45:53.488Z,22.20
2022-09-10T13:48:47.397Z,22.20
2022-09-10T13:51:39.885Z,22.40
2022-09-10T13:54:33.059Z,22.40
2022-09-10T13:57:25.642Z,22.40
2022-09-10T14:00:21.758Z,22.30
2022-09-10T14:03:16.369Z,22.10
2022-09-10T14:06:07.572Z,22.00
2022-09-10T14:08:57.490Z,21.80
2022-09-10T14:11:45.338Z,22.10
2022-09-10T14:14:38.489Z,22.20
2022-09-10T14:17:29.866Z,22.50
2022-09-10T14:20:23.301Z,22.80
2022-09-10T14:23:15.875Z,22.80
2022-09-10T14:26:11.550Z,22.80
2022-09-10T14:29:00.990Z,22.90
2022-09-10T14:31:47.901Z,23.10
2022-09-10T14:34:37.013Z,23.00
2022-09-10T14:37:45.110Z,22.10
2022-09-10T14:40:37.739Z,21.80
2022-09-10T14:43:33.522Z,21.90
2022-09-10T14:46:48.900Z,21.60
2022-09-10T14:49:39.175Z,21.70
2022-09-10T14:52:26.327Z,21.70
2022-09-10T14:55:13.697Z,21.70
2022-09-10T14:58:01.148Z,21.60
2022-09-10T15:00:48.232Z,21.20
2022-09-10T15:03:38.044Z,21.20
2022-09-10T15:06:27.222Z,21.30
2022-09-10T15:09:15.725Z,21.40
2022-09-10T15:12:08.047Z,21.50
2022-09-10T15:14:55.470Z,21.70
2022-09-10T15:17:42.727Z,22.00
2022-09-10T15:20:30.074Z,22.30
2022-09-10T15:23:21.649Z,22.50
2022-09-10T15:26:13.132Z,22.80
2022-09-10T15:29:00.494Z,22.70
2022-09-10T15:31:47.751Z,22.80
2022-09-10T15:34:35.243Z,22.60
2022-09-10T15:37:23.077Z,22.20
2022-09-10T15:40:12.298Z,22.00
2022-09-10T15:42:59.453Z,21.70
2022-09-10T15:45:48.499Z,21.80
2022-09-10T15:48:36.700Z,21.70
2022-09-10T15:51:24.777Z,21.50
2022-09-10T15:54:12.209Z,21.30
2022-09-10T15:57:01.071Z,21.40
2022-09-10T15:59:48.290Z,21.40
2022-09-10T16:02:35.409Z,21.30
2022-09-10T16:05:22.610Z,21.30
2022-09-10T16:08:09.741Z,21.30
2022-09-10T16:10:57.514Z,21.40
2022-09-10T16:13:45.927Z,21.40
2022-09-10T16:16:33.861Z,21.40
2022-09-10T16:19:21.555Z,21.60
2022-09-10T16:22:09.038Z,21.70
2022-09-10T16:24:55.919Z,21.50
2022-09-10T16:27:45.178Z,21.60
2022-09-10T16:30:35.078Z,21.70
2022-09-10T16:33:22.186Z,21.60
2022-09-10T16:36:09.770Z,21.60
2022-09-10T16:38:57.950Z,21.60
2022-09-10T16:41:47.596Z,21.60
2022-09-10T16:44:34.712Z,21.40
2022-09-10T16:47:23.735Z,21.50
2022-09-10T16:50:11.022Z,21.40
2022-09-10T16:52:58.145Z,21.40
2022-09-10T16:55:45.680Z,21.30
2022-09-10T16:58:35.904Z,21.20
2022-09-10T17:01:23.448Z,20.90
2022-09-10T17:04:18.828Z,20.90
2022-09-10T17:07:06.971Z,21.00
2022-09-10T17:09:58.687Z,20.80
2022-09-10T17:12:47.686Z,20.60
2022-09-10T17:15:35.357Z,20.50
2022-09-10T17:18:22.498Z,20.50
2022-09-10T17:21:11.256Z,20.50
2022-09-10T17:23:59.604Z,20.40
2022-09-10T17:26:46.996Z,20.40
2022-09-10T17:29:34.015Z,20.20
2022-09-10T17:32:21.291Z,20.10
2022-09-10T17:35:10.798Z,20.00
2022-09-10T17:37:59.221Z,19.90
2022-09-10T17:40:46.710Z,19.80
2022-09-10T17:43:37.064Z,19.80
2022-09-10T17:46:24.453Z,19.70
2022-09-10T17:49:13.903Z,19.60
2022-09-10T17:52:01.278Z,19.60
2022-09-10T17:54:51.793Z,19.50
2022-09-10T17:57:39.610Z,19.40
2022-09-10T18:00:26.446Z,19.50
2022-09-10T18:03:14.376Z,19.40
2022-09-10T18:06:04.822Z,19.40
2022-09-10T18:08:52.471Z,19.30
2022-09-10T18:11:42.201Z,19.20
2022-09-10T18:14:29.386Z,19.20
2022-09-10T18:17:17.392Z,19.20
2022-09-10T18:20:04.666Z,19.10
2022-09-10T18:22:52.239Z,18.80
2022-09-10T18:25:39.623Z,18.90
2022-09-10T18:28:28.088Z,18.70
2022-09-10T18:31:15.533Z,18.60
2022-09-10T18:34:03.641Z,18.50
2022-09-10T18:36:53.485Z,18.50
2022-09-10T18:39:41.104Z,18.50
2022-09-10T18:42:28.254Z,18.40
2022-09-10T18:45:17.364Z,18.40
2022-09-10T18:48:04.758Z,18.40
2022-09-10T18:50:51.967Z,18.40
2022-09-10T18:53:39.596Z,18.30
2022-09-10T18:56:29.821Z,18.20
2022-09-10T18:59:21.123Z,18.20
2022-09-10T19:02:12.933Z,18.20
2022-09-10T19:05:17.582Z,18.30
2022-09-10T19:08:04.490Z,18.30
2022-09-10T19:10:54.185Z,18.30
2022-09-10T19:13:41.168Z,18.20
2022-09-10T19:16:30.204Z,18.20
2022-09-10T19:19:22.075Z,18.10
2022-09-10T19:22:10.500Z,17.90
2022-09-10T19:24:57.513Z,17.80
2022-09-10T19:27:45.067Z,17.70
2022-09-10T19:30:35.672Z,17.70
2022-09-10T19:33:22.799Z,17.80
2022-09-10T19:36:14.281Z,17.80
2022-09-10T19:39:01.815Z,17.80
2022-09-10T19:41:50.281Z,17.90
2022-09-10T19:44:38.053Z,17.70
2022-09-10T19:47:25.298Z,17.70
2022-09-10T19:50:13.319Z,17.70
2022-09-10T19:53:01.877Z,17.70
2022-09-10T19:55:49.671Z,17.70
2022-09-10T19:58:37.448Z,17.50
2022-09-10T20:01:26.237Z,17.50
2022-09-10T20:04:14.046Z,17.40
2022-09-10T20:07:00.880Z,17.40
2022-09-10T20:09:49.776Z,17.30
2022-09-10T20:12:37.043Z,17.30
2022-09-10T20:15:24.697Z,17.30
2022-09-10T20:18:12.186Z,17.20
2022-09-10T20:21:11.732Z,17.10
2022-09-10T20:23:59.018Z,17.00
2022-09-10T20:26:48.920Z,17.00
2022-09-10T20:29:36.260Z,16.70
2022-09-10T20:32:23.802Z,16.70
2022-09-10T20:35:11.289Z,16.70
2022-09-10T20:37:58.606Z,16.50
2022-09-10T20:40:45.693Z,16.40
2022-09-10T20:43:34.768Z,16.40
2022-09-10T20:49:23.086Z,16.60
2022-09-10T20:52:10.878Z,16.60
2022-09-10T20:54:57.926Z,16.50
2022-09-10T20:57:45.153Z,16.40
2022-09-10T21:00:33.820Z,16.40
2022-09-10T21:03:21.164Z,16.40
2022-09-10T21:06:09.257Z,16.50
2022-09-10T21:08:56.460Z,16.40
2022-09-10T21:11:43.786Z,16.30
2022-09-10T21:14:31.754Z,16.30
2022-09-10T21:17:20.270Z,16.30
2022-09-10T21:20:08.366Z,16.30
2022-09-10T21:22:56.383Z,16.20
2022-09-10T21:25:51.366Z,16.00
2022-09-10T21:28:38.412Z,15.80
2022-09-10T21:31:27.167Z,15.90
2022-09-10T21:34:15.576Z,15.90
2022-09-10T21:37:03.009Z,16.00
2022-09-10T21:39:50.254Z,16.00
2022-09-10T21:42:37.617Z,15.90
2022-09-10T21:45:26.351Z,15.90
2022-09-10T21:48:13.654Z,15.90
2022-09-10T21:51:05.169Z,15.80
2022-09-10T21:53:54.815Z,15.80
2022-09-10T21:56:41.991Z,15.80
2022-09-10T21:59:29.426Z,15.70
2022-09-10T22:02:16.422Z,15.50
2022-09-10T22:05:04.994Z,15.50
2022-09-10T22:07:54.545Z,15.60
2022-09-10T22:10:42.301Z,15.60
2022-09-10T22:13:28.993Z,15.50
2022-09-10T22:16:16.778Z,15.40
2022-09-10T22:19:06.262Z,15.50
2022-09-10T22:21:54.135Z,15.50
2022-09-10T22:24:42.787Z,15.50
2022-09-10T22:27:29.871Z,15.40
2022-09-10T22:30:17.168Z,15.30
2022-09-10T22:33:04.228Z,15.00
2022-09-10T22:35:51.814Z,15.00
2022-09-10T22:38:39.522Z,15.10
2022-09-10T22:41:28.910Z,15.10
2022-09-10T22:44:17.617Z,15.10
2022-09-10T22:47:05.197Z,15.10
2022-09-10T22:49:52.187Z,15.10
2022-09-10T22:52:39.572Z,15.10
2022-09-10T22:55:27.027Z,15.20
2022-09-10T22:58:15.668Z,15.20
2022-09-10T23:01:08.028Z,15.20
2022-09-10T23:03:56.856Z,15.20
2022-09-10T23:06:43.896Z,15.20
2022-09-10T23:09:30.896Z,15.10
2022-09-10T23:12:20.242Z,15.00
2022-09-10T23:15:09.374Z,14.90
2022-09-10T23:17:56.671Z,14.90
2022-09-10T23:20:44.014Z,15.00
2022-09-10T23:23:31.531Z,15.00
2022-09-10T23:26:19.718Z,15.00
2022-09-10T23:29:07.473Z,14.90
2022-09-10T23:31:56.258Z,14.90
2022-09-10T23:34:43.513Z,15.00
2022-09-10T23:37:30.729Z,15.10
2022-09-10T23:40:18.062Z,15.10
2022-09-10T23:43:05.235Z,15.10
2022-09-10T23:45:53.107Z,15.10
2022-09-10T23:48:43.382Z,15.00
2022-09-10T23:51:31.112Z,15.10
2022-09-10T23:54:18.771Z,15.10
2022-09-10T23:57:06.217Z,15.00
2022-09-10T23:59:53.603Z,15.00
